Anvil, Mississippi
Current Conditions -  °F | °C
As of 12:55 AM on Saturday 20 Dec 2014 (Local Time) from KCRX Reporting Station
Overcast Overcast  
Wind Chill: 39°   Ceiling: 9000
Heat Index: 39°   Visibility: 10mi
Dew Point: 34°   Wind: 3mph
Humidity: 81%   Direction: 330°NNW
Pressure: 30.2"   Gusts: NA
Location:  34.9009°N, 88.9211°W
Report Text: KCRX 200655Z AUTO 33003KT 10SM SCT070 OVC090 04/01 A3020 RMK AO2
Loading
Personal Weather Stations






























Interactive Weather Map New forecast layout! Learn more

10-Day Weather Forecast

Advertisements
Track Severe Weather on mobile